Time;durP1;ratioP1;P1;durP2;ratioP2;P2;SDS_P1;SDS_P2;PMS_P1;PMS_P2;Temp;Humidity;BMP_temperature;BMP_pressure;BME280_temperature;BME280_humidity;BME280_pressure;Samples;Min_cycle;Max_cycle;Signal;HPM_P1;HPM_P2
2021/03/18 00:02:04;;;;;;;10.87;6.43;;;1.60;99.90;;;;;;5029587;28;20199;-63
2021/03/18 00:04:31;;;;;;;10.20;7.00;;;1.60;99.90;;;;;;5028381;28;20182;-65
2021/03/18 00:06:57;;;;;;;11.80;8.23;;;1.50;99.90;;;;;;5029028;28;20533;-63
2021/03/18 00:09:23;;;;;;;13.57;8.30;;;1.50;99.90;;;;;;5012777;28;20637;-63
2021/03/18 00:11:52;;;;;;;16.00;8.43;;;1.50;99.90;;;;;;5013667;28;20195;-63
2021/03/18 00:14:21;;;;;;;15.77;8.90;;;1.50;99.90;;;;;;5020309;28;20537;-63
2021/03/18 00:16:47;;;;;;;14.40;9.27;;;1.50;99.90;;;;;;5015010;28;20207;-64
2021/03/18 00:19:12;;;;;;;11.50;9.10;;;1.50;99.90;;;;;;5032371;28;20217;-63
2021/03/18 00:21:39;;;;;;;10.13;7.97;;;1.50;99.90;;;;;;5015724;28;20204;-63
2021/03/18 00:24:05;;;;;;;12.13;8.33;;;1.40;99.90;;;;;;5023076;28;20183;-64
2021/03/18 00:26:33;;;;;;;12.33;9.40;;;1.40;99.90;;;;;;5032305;28;20207;-63
2021/03/18 00:29:05;;;;;;;9.47;8.00;;;1.40;99.90;;;;;;5020028;28;20203;-65
2021/03/18 00:31:33;;;;;;;8.93;7.60;;;1.40;99.90;;;;;;5018524;28;20235;-64
2021/03/18 00:33:59;;;;;;;10.63;8.23;;;1.40;99.90;;;;;;5020312;28;20196;-62
2021/03/18 00:36:25;;;;;;;13.10;8.40;;;1.40;99.90;;;;;;5032304;28;20282;-64
2021/03/18 00:38:51;;;;;;;11.93;7.73;;;1.30;99.90;;;;;;5024992;28;20207;-64
2021/03/18 00:41:18;;;;;;;15.73;9.53;;;1.30;99.90;;;;;;5013287;28;20204;-64
2021/03/18 00:43:48;;;;;;;13.37;9.43;;;1.30;99.90;;;;;;5038888;28;20182;-65
2021/03/18 00:46:15;;;;;;;12.90;8.33;;;1.30;99.90;;;;;;5032434;28;20548;-66
2021/03/18 00:48:40;;;;;;;9.90;8.03;;;1.30;99.90;;;;;;5017657;28;20188;-66
2021/03/18 00:51:13;;;;;;;9.93;7.30;;;1.30;99.90;;;;;;5020198;28;20212;-64
2021/03/18 00:53:42;;;;;;;11.70;8.10;;;1.30;99.90;;;;;;5025499;28;20179;-65
2021/03/18 00:56:13;;;;;;;13.17;8.77;;;1.20;99.90;;;;;;5031356;28;20302;-64
2021/03/18 00:58:40;;;;;;;11.20;8.50;;;1.20;99.90;;;;;;5007059;28;20270;-66
2021/03/18 01:01:08;;;;;;;13.50;9.33;;;1.20;99.90;;;;;;5031351;28;20223;-65
2021/03/18 01:03:36;;;;;;;15.27;9.27;;;1.20;99.90;;;;;;5016632;28;20172;-65
2021/03/18 01:06:09;;;;;;;13.33;7.53;;;1.20;99.90;;;;;;5012161;28;20168;-66
2021/03/18 01:08:36;;;;;;;12.37;8.13;;;1.20;99.90;;;;;;5019465;28;20188;-65
2021/03/18 01:11:06;;;;;;;17.47;9.47;;;1.20;99.90;;;;;;5012175;28;20196;-63
2021/03/18 01:13:33;;;;;;;10.97;8.20;;;1.20;99.90;;;;;;5024685;28;20176;-64
2021/03/18 01:16:03;;;;;;;9.67;7.57;;;1.20;99.90;;;;;;5013785;28;20290;-64
2021/03/18 01:18:40;;;;;;;11.53;8.43;;;1.20;99.90;;;;;;5034975;28;20365;-64
2021/03/18 01:21:14;;;;;;;11.50;8.43;;;1.20;99.90;;;;;;5031467;28;20222;-63
2021/03/18 01:23:41;;;;;;;14.23;9.17;;;1.20;99.90;;;;;;5020491;28;20608;-64
2021/03/18 01:26:10;;;;;;;10.10;8.27;;;1.20;99.90;;;;;;5023697;28;20183;-64
2021/03/18 01:28:37;;;;;;;13.57;9.03;;;1.20;99.90;;;;;;5042785;28;20171;-64
2021/03/18 01:31:05;;;;;;;10.83;9.23;;;1.20;99.90;;;;;;5029836;28;20262;-64
2021/03/18 01:33:31;;;;;;;14.43;8.57;;;1.20;99.90;;;;;;5025716;28;20238;-65
2021/03/18 01:36:00;;;;;;;14.83;8.47;;;1.20;99.90;;;;;;5028273;28;20210;-64
2021/03/18 01:38:29;;;;;;;13.27;9.27;;;1.20;99.90;;;;;;5033841;28;20172;-65
2021/03/18 01:40:55;;;;;;;11.70;9.20;;;1.20;99.90;;;;;;5012360;28;20191;-64
2021/03/18 01:43:41;;;;;;;13.00;9.27;;;1.20;99.90;;;;;;5021634;28;20169;-65
2021/03/18 01:46:07;;;;;;;19.60;9.03;;;1.20;99.90;;;;;;5026142;28;20192;-65
2021/03/18 01:48:33;;;;;;;13.50;10.63;;;1.20;99.90;;;;;;5026579;28;20180;-64
2021/03/18 01:51:02;;;;;;;15.80;9.07;;;1.20;99.90;;;;;;5034828;28;20238;-65
2021/03/18 01:53:29;;;;;;;11.13;8.70;;;1.20;99.90;;;;;;5027543;28;20176;-65
2021/03/18 01:55:57;;;;;;;12.53;9.23;;;1.20;99.90;;;;;;5012185;28;20279;-66
2021/03/18 01:58:23;;;;;;;13.60;10.30;;;1.20;99.90;;;;;;5015966;28;20195;-66
2021/03/18 02:00:53;;;;;;;17.73;10.60;;;1.20;99.90;;;;;;5030767;28;20188;-65
2021/03/18 02:03:19;;;;;;;19.93;11.00;;;1.20;99.90;;;;;;5026638;28;20548;-65
2021/03/18 02:05:46;;;;;;;14.00;11.20;;;1.20;99.90;;;;;;5011545;28;20171;-66
2021/03/18 02:08:14;;;;;;;18.80;11.73;;;1.20;99.90;;;;;;5012418;28;20604;-65
2021/03/18 02:10:39;;;;;;;20.10;13.07;;;1.20;99.90;;;;;;5028963;28;20199;-64
2021/03/18 02:13:07;;;;;;;15.10;11.77;;;1.30;99.90;;;;;;5016587;28;20270;-65
2021/03/18 02:15:40;;;;;;;20.20;12.63;;;1.20;99.90;;;;;;5031352;28;20199;-65
2021/03/18 02:18:17;;;;;;;19.87;13.70;;;1.20;99.90;;;;;;5016645;28;20168;-65
2021/03/18 02:21:01;;;;;;;18.43;13.30;;;1.20;99.90;;;;;;5011576;28;20552;-65
2021/03/18 02:23:45;;;;;;;20.53;14.63;;;1.20;99.90;;;;;;5027415;28;20206;-65
2021/03/18 02:27:07;;;;;;;21.07;14.23;;;1.20;99.90;;;;;;5015004;28;20207;-64
2021/03/18 02:30:18;;;;;;;22.53;12.93;;;1.20;99.90;;;;;;5024239;28;20594;-65
2021/03/18 02:33:19;;;;;;;19.67;13.80;;;1.10;99.90;;;;;;5017489;28;20531;-65
2021/03/18 02:36:10;;;;;;;27.23;13.50;;;1.10;99.90;;;;;;4963856;28;20231;-64
2021/03/18 02:38:41;;;;;;;20.97;13.93;;;1.10;99.90;;;;;;5025674;28;20191;-65
2021/03/18 02:41:20;;;;;;;22.57;13.73;;;1.10;99.90;;;;;;5014424;28;20214;-64
2021/03/18 02:43:50;;;;;;;20.63;12.60;;;1.20;99.90;;;;;;5021315;28;20247;-65
2021/03/18 02:46:17;;;;;;;16.30;10.97;;;1.20;99.90;;;;;;5014137;28;20176;-65
2021/03/18 02:48:45;;;;;;;18.67;9.43;;;1.30;99.90;;;;;;5030239;28;20650;-66
2021/03/18 02:51:19;;;;;;;18.13;11.77;;;1.40;99.90;;;;;;5033458;28;20222;-65
2021/03/18 02:53:47;;;;;;;17.93;12.03;;;1.40;99.90;;;;;;5022397;28;20525;-64
2021/03/18 02:56:20;;;;;;;15.27;8.60;;;1.40;99.90;;;;;;5018412;28;20211;-63
2021/03/18 02:58:55;;;;;;;17.90;12.70;;;1.40;99.90;;;;;;5035782;28;20235;-65
2021/03/18 03:01:22;;;;;;;19.07;11.27;;;1.40;99.90;;;;;;5035745;28;20191;-64
2021/03/18 03:03:49;;;;;;;23.43;14.37;;;1.40;99.90;;;;;;5026262;28;20239;-64
2021/03/18 03:06:17;;;;;;;18.43;12.67;;;1.40;99.90;;;;;;5022053;28;20168;-64
2021/03/18 03:08:45;;;;;;;26.03;12.07;;;1.40;99.90;;;;;;5020542;28;20179;-65
2021/03/18 03:11:12;;;;;;;19.50;13.63;;;1.40;99.90;;;;;;5033483;28;20195;-64
2021/03/18 03:13:41;;;;;;;24.33;13.90;;;1.40;99.90;;;;;;5025429;28;20525;-64
2021/03/18 03:16:12;;;;;;;26.43;15.10;;;1.40;99.90;;;;;;5018716;28;20223;-63
2021/03/18 03:18:39;;;;;;;21.97;15.00;;;1.30;99.90;;;;;;5030887;28;20183;-64
2021/03/18 03:21:06;;;;;;;20.93;14.93;;;1.30;99.90;;;;;;5032774;28;20191;-64
2021/03/18 03:23:33;;;;;;;15.50;11.10;;;1.30;99.90;;;;;;5023412;28;20259;-63
2021/03/18 03:26:00;;;;;;;19.20;13.93;;;1.20;99.90;;;;;;5033086;28;20544;-64
2021/03/18 03:28:28;;;;;;;22.40;13.73;;;1.20;99.90;;;;;;5023868;28;20179;-63
2021/03/18 03:30:56;;;;;;;22.57;14.13;;;1.10;99.90;;;;;;5032299;28;20428;-63
2021/03/18 03:33:22;;;;;;;21.77;14.37;;;1.10;99.90;;;;;;5016227;28;20184;-63
2021/03/18 03:35:48;;;;;;;27.47;15.43;;;1.10;99.90;;;;;;5013111;28;20215;-63
2021/03/18 03:38:14;;;;;;;23.13;15.57;;;1.10;99.90;;;;;;5023255;28;20172;-64
2021/03/18 03:40:40;;;;;;;25.57;15.07;;;1.10;99.90;;;;;;5012570;28;20196;-64
2021/03/18 03:43:06;;;;;;;23.40;15.53;;;1.20;99.90;;;;;;5022678;28;20191;-63
2021/03/18 03:45:32;;;;;;;28.63;16.03;;;1.20;99.90;;;;;;5012878;28;20183;-63
2021/03/18 03:47:57;;;;;;;21.73;14.80;;;1.10;99.90;;;;;;5022281;28;20286;-63
2021/03/18 03:50:26;;;;;;;34.17;16.27;;;1.00;99.90;;;;;;5012224;28;20234;-64
2021/03/18 03:53:01;;;;;;;23.00;14.27;;;1.00;99.90;;;;;;5020681;28;20171;-63
2021/03/18 03:55:44;;;;;;;21.13;15.53;;;0.90;99.90;;;;;;5032128;28;20195;-63
2021/03/18 03:58:48;;;;;;;24.50;14.70;;;0.90;99.90;;;;;;5023209;28;20175;-63
2021/03/18 04:01:42;;;;;;;20.80;13.27;;;0.90;99.90;;;;;;5032032;28;20185;-63
2021/03/18 04:04:15;;;;;;;19.00;14.80;;;0.80;99.90;;;;;;5012759;28;20815;-64
2021/03/18 04:06:43;;;;;;;16.63;13.00;;;0.80;99.90;;;;;;5012555;28;20214;-64
2021/03/18 04:09:14;;;;;;;25.00;15.37;;;0.80;99.90;;;;;;5031149;28;20237;-64
2021/03/18 04:11:40;;;;;;;23.93;15.17;;;0.80;99.90;;;;;;5030327;28;20294;-63
2021/03/18 04:14:08;;;;;;;26.23;14.17;;;0.80;99.90;;;;;;5025012;28;20648;-63
2021/03/18 04:16:36;;;;;;;20.77;14.53;;;0.80;99.90;;;;;;5031733;28;20202;-63
2021/03/18 04:19:04;;;;;;;21.23;15.33;;;0.90;99.90;;;;;;5020269;28;20717;-63
2021/03/18 04:21:32;;;;;;;22.00;15.47;;;1.00;99.90;;;;;;5012004;28;20184;-63
2021/03/18 04:24:01;;;;;;;29.40;19.03;;;1.10;99.90;;;;;;5030661;28;20180;-63
2021/03/18 04:26:29;;;;;;;24.50;16.10;;;1.20;99.90;;;;;;5030631;28;20186;-61
2021/03/18 04:28:56;;;;;;;23.87;18.10;;;1.20;99.90;;;;;;5022931;28;20184;-63
2021/03/18 04:31:23;;;;;;;24.57;15.87;;;1.30;99.90;;;;;;5030805;28;20200;-63
2021/03/18 04:33:49;;;;;;;24.23;15.90;;;1.30;99.90;;;;;;5022772;28;20418;-64
2021/03/18 04:36:15;;;;;;;29.00;17.73;;;1.30;99.90;;;;;;5031725;28;20374;-63
2021/03/18 04:38:41;;;;;;;20.30;16.20;;;1.40;99.90;;;;;;5024049;28;20330;-64
2021/03/18 04:41:07;;;;;;;22.47;15.20;;;1.40;99.90;;;;;;5030049;28;20274;-64
2021/03/18 04:43:36;;;;;;;21.00;15.87;;;1.30;99.90;;;;;;5017871;28;20212;-63
2021/03/18 04:46:05;;;;;;;25.10;16.60;;;1.40;99.90;;;;;;5012012;28;20176;-64
2021/03/18 04:48:32;;;;;;;25.10;15.37;;;1.50;99.90;;;;;;5023601;28;20581;-63
2021/03/18 04:50:58;;;;;;;26.90;17.30;;;1.50;99.90;;;;;;5030840;28;20210;-64
2021/03/18 04:53:23;;;;;;;21.63;15.97;;;1.50;99.90;;;;;;5024110;28;20184;-64
2021/03/18 04:55:49;;;;;;;25.27;14.93;;;1.40;99.90;;;;;;5014623;28;20226;-63
2021/03/18 04:58:19;;;;;;;30.50;16.83;;;1.50;99.90;;;;;;5031456;28;20637;-64
2021/03/18 05:00:46;;;;;;;30.40;15.40;;;1.40;99.90;;;;;;5028741;28;20609;-63
2021/03/18 05:03:12;;;;;;;23.03;14.73;;;1.50;99.90;;;;;;5014825;28;20237;-63
2021/03/18 05:05:39;;;;;;;22.07;14.50;;;1.40;99.90;;;;;;5030759;28;20172;-63
2021/03/18 05:08:05;;;;;;;26.23;15.07;;;1.40;99.90;;;;;;5011541;28;20584;-64
2021/03/18 05:10:34;;;;;;;24.40;15.53;;;1.50;99.90;;;;;;5011023;28;20196;-64
2021/03/18 05:13:04;;;;;;;28.00;17.37;;;1.50;99.90;;;;;;5012902;28;20246;-64
2021/03/18 05:15:30;;;;;;;23.20;17.03;;;1.50;99.90;;;;;;5031317;28;20672;-63
2021/03/18 05:17:56;;;;;;;24.27;17.03;;;1.50;99.90;;;;;;5021548;28;20171;-63
2021/03/18 05:20:24;;;;;;;24.27;16.50;;;1.50;99.90;;;;;;5011183;28;20665;-62
2021/03/18 05:22:50;;;;;;;25.23;16.13;;;1.50;99.90;;;;;;5027442;28;20640;-63
2021/03/18 05:25:20;;;;;;;23.33;16.83;;;1.60;99.90;;;;;;5011499;28;20164;-64
2021/03/18 05:27:46;;;;;;;25.00;15.90;;;1.60;99.90;;;;;;5011468;28;20544;-64
2021/03/18 05:30:13;;;;;;;23.37;16.53;;;1.60;99.90;;;;;;5011060;28;20267;-64
2021/03/18 05:32:39;;;;;;;27.57;17.73;;;1.60;99.90;;;;;;5024872;28;20205;-64
2021/03/18 05:35:07;;;;;;;24.27;17.17;;;1.60;99.90;;;;;;5011925;28;20412;-64
2021/03/18 05:37:33;;;;;;;22.70;17.97;;;1.60;99.90;;;;;;5023912;28;20240;-64
2021/03/18 05:39:59;;;;;;;23.20;17.17;;;1.60;99.90;;;;;;5012577;28;20646;-64
2021/03/18 05:42:25;;;;;;;27.20;16.80;;;1.60;99.90;;;;;;5022163;28;20183;-64
2021/03/18 05:44:50;;;;;;;23.37;16.83;;;1.70;99.90;;;;;;5030819;28;20604;-64
2021/03/18 05:47:17;;;;;;;27.17;17.47;;;1.60;99.90;;;;;;5021214;28;20172;-64
2021/03/18 05:49:44;;;;;;;27.00;17.00;;;1.60;99.90;;;;;;5026576;28;20187;-64
2021/03/18 05:52:12;;;;;;;24.87;17.63;;;1.60;99.90;;;;;;5021932;28;20235;-64
2021/03/18 05:54:45;;;;;;;25.40;17.97;;;1.60;99.90;;;;;;5012538;28;20607;-64
2021/03/18 05:57:12;;;;;;;29.90;17.73;;;1.60;99.90;;;;;;5022692;28;20645;-64
2021/03/18 05:59:38;;;;;;;28.10;16.97;;;1.60;99.90;;;;;;5034540;28;20233;-63
2021/03/18 06:02:04;;;;;;;32.13;18.93;;;1.60;99.90;;;;;;5027776;28;20640;-64
2021/03/18 06:04:30;;;;;;;35.43;18.53;;;1.60;99.90;;;;;;5018055;28;20273;-64
2021/03/18 06:06:56;;;;;;;29.13;18.27;;;1.70;99.90;;;;;;5019022;28;20213;-64
2021/03/18 06:09:22;;;;;;;32.30;17.73;;;1.70;99.90;;;;;;5021327;28;20278;-64
2021/03/18 06:11:48;;;;;;;24.70;17.23;;;1.70;99.90;;;;;;5016948;28;20767;-64
2021/03/18 06:14:13;;;;;;;28.53;18.77;;;1.60;99.90;;;;;;5034263;28;20175;-63
2021/03/18 06:16:40;;;;;;;22.83;18.00;;;1.70;99.90;;;;;;5033104;28;20260;-63
2021/03/18 06:19:07;;;;;;;28.73;19.20;;;1.80;99.90;;;;;;5032234;28;20178;-64
2021/03/18 06:22:02;;;;;;;28.10;18.97;;;1.80;99.90;;;;;;5032423;28;20195;-63
2021/03/18 06:24:29;;;;;;;25.33;17.40;;;1.90;99.90;;;;;;5007157;28;20215;-64
2021/03/18 06:26:56;;;;;;;30.37;19.20;;;2.00;99.90;;;;;;5025022;28;20547;-64
2021/03/18 06:29:33;;;;;;;28.70;17.97;;;2.10;99.90;;;;;;5033923;28;20454;-63
2021/03/18 06:32:18;;;;;;;29.80;19.60;;;2.10;99.90;;;;;;5022135;28;20204;-64
2021/03/18 06:34:45;;;;;;;25.80;20.17;;;2.10;99.90;;;;;;5029979;28;20190;-64
2021/03/18 06:37:39;;;;;;;30.23;18.70;;;2.20;99.90;;;;;;5021476;28;20212;-64
2021/03/18 06:40:09;;;;;;;25.90;19.53;;;2.20;99.90;;;;;;5032476;28;20203;-64
2021/03/18 06:42:40;;;;;;;34.80;19.77;;;2.20;99.90;;;;;;5017476;28;20176;-64
2021/03/18 06:45:15;;;;;;;22.93;17.63;;;2.30;99.90;;;;;;5014608;28;20654;-64
2021/03/18 06:47:41;;;;;;;23.00;17.60;;;2.30;99.90;;;;;;5024957;28;20168;-64
2021/03/18 06:50:07;;;;;;;30.00;20.73;;;2.30;99.90;;;;;;5013807;28;20223;-63
2021/03/18 06:52:37;;;;;;;39.23;21.87;;;2.30;99.90;;;;;;5013931;28;20322;-65
2021/03/18 06:55:08;;;;;;;28.07;20.07;;;2.30;99.90;;;;;;4994301;28;20650;-63
2021/03/18 06:57:34;;;;;;;35.60;20.10;;;2.30;99.90;;;;;;5009321;28;20705;-64
2021/03/18 07:00:00;;;;;;;33.63;18.77;;;2.30;99.90;;;;;;5020045;28;20187;-64
2021/03/18 07:02:26;;;;;;;34.87;21.23;;;2.40;99.90;;;;;;5011566;28;20176;-65
2021/03/18 07:04:54;;;;;;;32.60;21.77;;;2.40;99.90;;;;;;4993941;28;20173;-65
2021/03/18 07:07:22;;;;;;;32.37;20.37;;;2.50;99.90;;;;;;4993079;28;20177;-64
2021/03/18 07:09:51;;;;;;;31.33;20.97;;;2.70;99.90;;;;;;4993538;28;20169;-64
2021/03/18 07:12:24;;;;;;;31.23;19.57;;;2.80;99.90;;;;;;5001914;28;20536;-63
2021/03/18 07:14:52;;;;;;;32.57;19.70;;;2.90;99.90;;;;;;5033042;28;20175;-64
2021/03/18 07:17:36;;;;;;;34.70;19.93;;;3.00;99.90;;;;;;5026803;28;20204;-64
2021/03/18 07:20:13;;;;;;;30.90;19.87;;;3.20;99.90;;;;;;4997762;28;20177;-64
2021/03/18 07:22:48;;;;;;;24.43;17.27;;;3.30;99.90;;;;;;5031265;28;20182;-64
2021/03/18 07:25:15;;;;;;;24.80;15.17;;;3.50;99.90;;;;;;5029520;28;20175;-64
2021/03/18 07:27:46;;;;;;;25.13;18.07;;;3.60;99.90;;;;;;5012983;28;20617;-64
2021/03/18 07:30:33;;;;;;;22.77;18.17;;;3.60;99.90;;;;;;4993012;28;20222;-65
2021/03/18 07:33:00;;;;;;;29.80;18.53;;;3.60;99.90;;;;;;4999646;28;20206;-64
2021/03/18 07:35:26;;;;;;;29.47;19.30;;;3.60;99.90;;;;;;5032481;28;20720;-64
2021/03/18 07:37:53;;;;;;;28.00;17.97;;;3.70;99.90;;;;;;5031885;28;20164;-64
2021/03/18 07:40:20;;;;;;;25.57;17.53;;;3.90;99.90;;;;;;5021657;28;20249;-65
2021/03/18 07:42:48;;;;;;;24.33;16.87;;;4.00;99.90;;;;;;5032448;28;20164;-66
2021/03/18 07:45:17;;;;;;;24.67;15.93;;;4.10;99.90;;;;;;4993479;28;20176;-65
2021/03/18 07:47:45;;;;;;;23.07;17.60;;;4.30;99.90;;;;;;4992131;28;20208;-64
2021/03/18 07:50:13;;;;;;;22.20;16.37;;;4.30;99.90;;;;;;5031177;28;20210;-65
2021/03/18 07:52:43;;;;;;;23.77;16.47;;;4.40;99.90;;;;;;5029526;28;20168;-65
2021/03/18 07:55:12;;;;;;;25.43;15.60;;;4.60;99.90;;;;;;5013686;28;20212;-66
2021/03/18 07:57:50;;;;;;;22.53;15.67;;;4.90;99.90;;;;;;5014229;28;20203;-65
2021/03/18 08:00:18;;;;;;;23.13;15.23;;;5.10;99.90;;;;;;5023173;28;20552;-65
2021/03/18 08:02:44;;;;;;;23.80;15.23;;;5.20;99.90;;;;;;5012670;28;20255;-66
2021/03/18 08:05:10;;;;;;;17.67;13.20;;;5.40;99.90;;;;;;5012610;28;20259;-65
2021/03/18 08:07:38;;;;;;;19.03;14.20;;;5.70;99.90;;;;;;5012397;28;20176;-66
2021/03/18 08:10:10;;;;;;;24.93;16.07;;;5.60;99.90;;;;;;5030779;28;20180;-66
2021/03/18 08:12:52;;;;;;;23.10;17.67;;;5.80;99.90;;;;;;5022929;28;20183;-65
2021/03/18 08:15:21;;;;;;;23.10;16.10;;;5.80;99.90;;;;;;5012031;28;20279;-65
2021/03/18 08:17:46;;;;;;;29.07;17.20;;;5.90;99.90;;;;;;5013707;28;20267;-66
2021/03/18 08:20:32;;;;;;;22.90;15.47;;;5.80;99.90;;;;;;5031009;28;20222;-65
2021/03/18 08:22:59;;;;;;;27.70;17.07;;;6.00;99.90;;;;;;5021295;28;20204;-65
2021/03/18 08:25:24;;;;;;;27.50;18.17;;;5.80;99.90;;;;;;5024114;28;20286;-65
2021/03/18 08:27:50;;;;;;;34.10;20.53;;;5.60;99.90;;;;;;5023466;28;20298;-65
2021/03/18 08:30:24;;;;;;;26.90;19.47;;;5.20;99.90;;;;;;5011806;28;20255;-65
2021/03/18 08:32:50;;;;;;;29.37;18.07;;;5.30;99.90;;;;;;5019438;28;20178;-64
2021/03/18 08:35:27;;;;;;;35.73;24.47;;;5.40;99.90;;;;;;5011843;28;20214;-65
2021/03/18 08:37:55;;;;;;;33.93;18.90;;;5.40;99.90;;;;;;5019048;28;20782;-66
2021/03/18 08:40:21;;;;;;;26.13;16.83;;;5.20;99.90;;;;;;5023289;28;20195;-65
2021/03/18 08:42:51;;;;;;;25.73;18.63;;;5.30;99.90;;;;;;5025832;28;20180;-64
2021/03/18 08:45:20;;;;;;;24.93;17.37;;;5.50;99.90;;;;;;5012114;28;20181;-66
2021/03/18 08:47:49;;;;;;;25.50;18.30;;;5.60;99.90;;;;;;5015464;28;20183;-66
2021/03/18 08:50:35;;;;;;;26.73;17.27;;;5.60;99.90;;;;;;5012203;28;20303;-64
2021/03/18 08:53:03;;;;;;;20.60;13.77;;;5.50;99.90;;;;;;5012928;28;20191;-64
2021/03/18 08:55:38;;;;;;;25.23;17.17;;;5.20;99.90;;;;;;5008368;28;20703;-65
2021/03/18 08:58:06;;;;;;;25.47;18.33;;;5.20;99.90;;;;;;4993121;28;20255;-64
2021/03/18 09:00:32;;;;;;;187.67;73.93;;;5.40;99.90;;;;;;5011235;28;20192;-64
2021/03/18 09:02:59;;;;;;;32.47;20.50;;;5.80;99.90;;;;;;5012044;28;20548;-65
2021/03/18 09:05:25;;;;;;;23.27;17.77;;;6.00;99.90;;;;;;5011534;28;20180;-64
2021/03/18 09:07:57;;;;;;;19.70;14.27;;;6.20;99.90;;;;;;5031408;28;20586;-64
2021/03/18 09:10:24;;;;;;;21.47;14.37;;;6.40;99.90;;;;;;5030677;28;20195;-64
2021/03/18 09:13:02;;;;;;;22.47;15.03;;;6.70;99.90;;;;;;5011826;28;20533;-64
2021/03/18 09:15:36;;;;;;;23.93;16.00;;;6.90;99.90;;;;;;5031011;28;20703;-64
2021/03/18 09:18:19;;;;;;;23.90;15.90;;;7.10;99.90;;;;;;5003818;28;20200;-65
2021/03/18 09:20:48;;;;;;;19.83;14.90;;;7.10;99.90;;;;;;5011940;28;20185;-65
2021/03/18 09:23:14;;;;;;;20.47;14.80;;;7.30;99.90;;;;;;5026208;28;20184;-65
2021/03/18 09:25:42;;;;;;;18.70;13.47;;;7.60;99.90;;;;;;5012042;28;20187;-64
2021/03/18 09:28:09;;;;;;;21.77;14.93;;;7.90;99.90;;;;;;5027889;28;20176;-65
2021/03/18 09:30:41;;;;;;;24.93;15.70;;;7.80;99.90;;;;;;5012757;28;20200;-65
2021/03/18 09:33:20;;;;;;;26.23;15.27;;;7.80;99.90;;;;;;5024210;28;20179;-64
2021/03/18 09:35:46;;;;;;;25.10;17.57;;;7.90;99.90;;;;;;5015003;28;20578;-65
2021/03/18 09:38:18;;;;;;;23.43;15.97;;;7.70;99.90;;;;;;5033876;28;20175;-64
2021/03/18 09:40:45;;;;;;;22.27;15.70;;;7.80;99.90;;;;;;5033455;28;20270;-65
2021/03/18 09:43:10;;;;;;;19.30;15.63;;;7.80;99.90;;;;;;5019147;28;20580;-64
2021/03/18 09:45:36;;;;;;;24.40;16.17;;;7.60;99.90;;;;;;5020165;28;20188;-63
2021/03/18 09:48:02;;;;;;;21.97;15.50;;;7.60;99.90;;;;;;5022558;28;20175;-64
2021/03/18 09:50:29;;;;;;;77.80;45.57;;;7.70;99.90;;;;;;5034033;28;20207;-64
2021/03/18 09:53:10;;;;;;;72.27;50.93;;;7.90;99.90;;;;;;5030402;28;20550;-64
2021/03/18 09:55:35;;;;;;;49.10;40.33;;;7.60;99.90;;;;;;5014743;28;20199;-64
2021/03/18 09:58:16;;;;;;;21.60;15.97;;;7.60;99.90;;;;;;5019033;28;20197;-63
2021/03/18 10:00:41;;;;;;;20.33;14.57;;;7.70;99.90;;;;;;5014362;28;20191;-64
2021/03/18 10:03:07;;;;;;;23.30;14.53;;;7.70;99.90;;;;;;5017546;28;20176;-64
2021/03/18 10:05:34;;;;;;;18.73;12.97;;;7.60;99.90;;;;;;5034378;28;20203;-64
2021/03/18 10:08:00;;;;;;;22.47;14.83;;;7.80;99.90;;;;;;5029303;28;20207;-64
2021/03/18 10:10:26;;;;;;;19.60;11.50;;;8.00;99.90;;;;;;5014077;28;20224;-63
2021/03/18 10:12:53;;;;;;;15.77;10.80;;;8.30;99.90;;;;;;5015520;28;20569;-65
2021/03/18 10:15:20;;;;;;;18.20;11.93;;;8.40;99.90;;;;;;5013959;28;20200;-64
2021/03/18 10:17:48;;;;;;;19.03;10.37;;;8.40;99.90;;;;;;5015678;28;20180;-64
2021/03/18 10:20:19;;;;;;;15.47;10.30;;;8.60;99.90;;;;;;5013975;28;20606;-64
2021/03/18 10:22:50;;;;;;;15.47;10.03;;;9.20;99.90;;;;;;5022587;28;20254;-65
2021/03/18 10:25:17;;;;;;;14.63;9.70;;;9.60;99.90;;;;;;5006278;28;20275;-64
2021/03/18 10:27:47;;;;;;;12.70;8.53;;;9.70;99.90;;;;;;5034065;28;20171;-64
2021/03/18 10:30:19;;;;;;;10.83;8.27;;;10.20;99.90;;;;;;5028152;28;20199;-65
2021/03/18 10:33:07;;;;;;;12.20;7.90;;;10.50;99.90;;;;;;5014362;28;20184;-64
2021/03/18 10:35:41;;;;;;;14.43;9.20;;;10.60;99.90;;;;;;5033700;28;20227;-65
2021/03/18 10:38:10;;;;;;;12.93;7.43;;;10.90;99.90;;;;;;5031098;28;20171;-65
2021/03/18 10:40:42;;;;;;;13.30;7.10;;;11.10;99.90;;;;;;5013879;28;20203;-65
2021/03/18 10:43:47;;;;;;;7.23;5.63;;;10.80;99.90;;;;;;5015322;28;20177;-64
2021/03/18 10:46:15;;;;;;;11.57;7.63;;;11.00;99.90;;;;;;5012614;28;20262;-64
2021/03/18 10:48:46;;;;;;;8.90;6.00;;;11.20;99.90;;;;;;5015341;28;20176;-63
2021/03/18 10:51:15;;;;;;;10.00;6.90;;;11.30;99.90;;;;;;5019828;28;20203;-64
2021/03/18 10:53:45;;;;;;;12.57;6.30;;;11.80;99.90;;;;;;5033622;28;20171;-64
2021/03/18 10:56:13;;;;;;;9.40;7.20;;;12.00;99.90;;;;;;5026767;28;20567;-64
2021/03/18 10:58:40;;;;;;;10.63;6.67;;;12.30;99.90;;;;;;5020479;28;20222;-64
2021/03/18 11:01:11;;;;;;;10.00;5.70;;;12.50;99.90;;;;;;5027557;28;20188;-64
2021/03/18 11:03:43;;;;;;;8.53;5.17;;;12.60;99.90;;;;;;5013679;28;20200;-65
2021/03/18 11:06:22;;;;;;;7.57;4.67;;;12.60;99.90;;;;;;5014647;28;20303;-65
2021/03/18 11:08:51;;;;;;;7.47;4.37;;;12.50;99.90;;;;;;5021850;28;20187;-64
2021/03/18 11:11:19;;;;;;;7.37;4.90;;;12.10;99.90;;;;;;5026531;28;20239;-64
2021/03/18 11:13:45;;;;;;;13.53;6.00;;;12.00;99.90;;;;;;5013916;28;20176;-63
2021/03/18 11:16:19;;;;;;;9.40;5.20;;;12.00;99.90;;;;;;5016872;28;20559;-64
2021/03/18 11:18:46;;;;;;;7.83;5.33;;;11.70;99.90;;;;;;5024160;28;20206;-64
2021/03/18 11:21:22;;;;;;;10.40;6.03;;;11.40;99.90;;;;;;5028841;28;20192;-64
2021/03/18 11:23:50;;;;;;;7.43;5.43;;;11.30;99.90;;;;;;5013430;28;20175;-63
2021/03/18 11:26:19;;;;;;;6.90;4.60;;;11.20;99.90;;;;;;5015917;28;20241;-64
2021/03/18 11:28:51;;;;;;;6.67;5.00;;;11.10;99.90;;;;;;5024771;28;20587;-63
2021/03/18 11:31:19;;;;;;;6.20;5.60;;;10.80;99.90;;;;;;5014743;28;20226;-64
2021/03/18 11:33:44;;;;;;;9.27;6.10;;;10.70;99.90;;;;;;5032792;28;20669;-64
2021/03/18 11:36:10;;;;;;;10.03;6.10;;;10.80;99.90;;;;;;5029345;28;20203;-64
2021/03/18 11:38:36;;;;;;;6.70;4.97;;;10.90;99.90;;;;;;5025928;28;20335;-64
2021/03/18 11:41:03;;;;;;;8.93;4.80;;;10.80;99.90;;;;;;5016076;28;20195;-64
2021/03/18 11:43:30;;;;;;;11.57;6.10;;;10.30;99.90;;;;;;5026436;28;20176;-64
2021/03/18 11:45:56;;;;;;;8.83;5.20;;;10.40;99.90;;;;;;5025215;28;20190;-63
2021/03/18 11:48:22;;;;;;;10.40;6.33;;;10.20;99.90;;;;;;5016303;28;20275;-64
2021/03/18 11:50:48;;;;;;;11.73;8.23;;;9.80;99.90;;;;;;5022985;28;20269;-63
2021/03/18 11:53:14;;;;;;;8.77;5.83;;;9.70;99.90;;;;;;5028225;28;20169;-64
2021/03/18 11:55:40;;;;;;;7.80;4.80;;;9.70;99.90;;;;;;5012674;28;20210;-64
2021/03/18 11:58:06;;;;;;;14.33;6.37;;;9.50;99.90;;;;;;5030649;28;20182;-64
2021/03/18 12:00:36;;;;;;;9.47;7.23;;;9.40;99.90;;;;;;5032000;28;20226;-63
2021/03/18 12:03:04;;;;;;;10.77;7.03;;;9.40;99.90;;;;;;5014833;28;20180;-64
2021/03/18 12:05:30;;;;;;;10.57;7.60;;;9.60;99.90;;;;;;5012547;28;20230;-64
2021/03/18 12:07:56;;;;;;;13.13;8.00;;;9.90;99.90;;;;;;5024158;28;20608;-63
2021/03/18 12:10:22;;;;;;;9.70;7.30;;;9.90;99.90;;;;;;5031535;28;20198;-65
2021/03/18 12:12:47;;;;;;;11.20;7.13;;;10.30;99.90;;;;;;5017547;28;20230;-63
2021/03/18 12:15:13;;;;;;;14.83;7.77;;;10.80;99.90;;;;;;5031621;28;20183;-63
2021/03/18 12:17:40;;;;;;;12.30;7.47;;;11.20;99.90;;;;;;5020110;28;20180;-64
2021/03/18 12:20:09;;;;;;;8.40;6.17;;;11.60;99.90;;;;;;5011796;28;20254;-63
2021/03/18 12:22:35;;;;;;;7.27;5.70;;;11.40;99.90;;;;;;5023468;28;20180;-63
2021/03/18 12:25:03;;;;;;;8.47;4.93;;;11.00;99.90;;;;;;5031821;28;20175;-64
2021/03/18 12:27:29;;;;;;;8.93;5.43;;;10.60;99.90;;;;;;5021430;28;20184;-64
2021/03/18 12:29:54;;;;;;;7.67;4.47;;;10.60;99.90;;;;;;5028874;28;20179;-64
2021/03/18 12:32:21;;;;;;;6.87;4.83;;;10.90;99.90;;;;;;5022664;28;20597;-64
2021/03/18 12:34:47;;;;;;;6.73;4.23;;;10.70;99.90;;;;;;5012147;28;20203;-64
2021/03/18 12:37:14;;;;;;;8.97;4.90;;;10.40;99.90;;;;;;5018245;28;20235;-64
2021/03/18 12:39:41;;;;;;;7.50;4.27;;;10.10;99.90;;;;;;5015076;28;20176;-64
2021/03/18 12:42:07;;;;;;;8.80;4.63;;;10.00;99.90;;;;;;5016953;28;20202;-63
2021/03/18 12:44:33;;;;;;;9.50;4.77;;;9.90;99.90;;;;;;5015585;28;20230;-66
2021/03/18 12:46:58;;;;;;;7.27;4.63;;;9.80;99.90;;;;;;5022892;28;20694;-63
2021/03/18 12:49:24;;;;;;;6.93;4.60;;;10.00;99.90;;;;;;5018782;28;20188;-63
2021/03/18 12:51:50;;;;;;;5.33;4.50;;;9.90;99.90;;;;;;5012010;28;20330;-63
2021/03/18 12:54:15;;;;;;;6.00;5.10;;;9.90;99.90;;;;;;5011611;28;20631;-63